Time,TemperatureF,DewpointF,PressureIn,WindDirection,WindDirectionDegrees,WindSpeedMPH,WindSpeedGustMPH,Humidity,HourlyPrecipIn,Conditions,Clouds,dailyrainin,SoftwareType,DateUTC
2013-02-18 00:04:00,45.3,23.4,30.01,North,0,0.0,0.0,42,0.00,,,0.00,WUHU216HW,2013-02-18 08:04:00,
2013-02-18 00:09:00,44.9,22.5,30.01,North,0,0.0,0.0,41,0.00,,,0.00,WUHU216HW,2013-02-18 08:09:00,
2013-02-18 00:14:00,44.7,22.3,30.01,North,0,0.0,0.0,41,0.00,,,0.00,WUHU216HW,2013-02-18 08:14:00,
2013-02-18 00:20:00,44.9,21.2,30.01,North,0,0.0,0.0,39,0.00,,,0.00,WUHU216HW,2013-02-18 08:20:00,
2013-02-18 00:25:00,44.9,20.6,30.01,North,0,0.0,0.0,38,0.00,,,0.00,WUHU216HW,2013-02-18 08:25:00,
2013-02-18 00:30:00,45.1,22.0,30.01,North,0,0.0,0.0,40,0.00,,,0.00,WUHU216HW,2013-02-18 08:30:00,
2013-02-18 00:35:00,45.1,22.0,30.01,North,0,0.0,0.0,40,0.00,,,0.00,WUHU216HW,2013-02-18 08:35:00,
2013-02-18 00:40:00,45.1,22.0,30.00,North,0,0.0,0.0,40,0.00,,,0.00,WUHU216HW,2013-02-18 08:40:00,
2013-02-18 00:45:00,44.5,20.8,30.01,North,0,0.0,0.0,39,0.00,,,0.00,WUHU216HW,2013-02-18 08:45:00,
2013-02-18 00:50:00,44.0,19.8,30.01,North,0,0.0,0.0,38,0.00,,,0.00,WUHU216HW,2013-02-18 08:50:00,
2013-02-18 00:55:00,43.8,19.6,30.01,North,0,0.0,0.0,38,0.00,,,0.00,WUHU216HW,2013-02-18 08:55:00,
2013-02-18 01:01:00,43.5,18.8,30.01,North,0,0.0,0.0,37,0.00,,,0.00,WUHU216HW,2013-02-18 09:01:00,
2013-02-18 01:06:00,43.5,18.7,30.01,North,0,0.0,0.0,37,0.00,,,0.00,WUHU216HW,2013-02-18 09:06:00,
2013-02-18 01:11:00,43.4,18.7,30.01,North,0,0.0,0.0,37,0.00,,,0.00,WUHU216HW,2013-02-18 09:11:00,
2013-02-18 01:16:00,43.5,18.7,30.01,North,0,0.0,0.0,37,0.00,,,0.00,WUHU216HW,2013-02-18 09:16:00,
2013-02-18 01:21:00,43.4,18.6,30.01,North,0,0.0,0.0,37,0.00,,,0.00,WUHU216HW,2013-02-18 09:21:00,
2013-02-18 01:26:00,43.0,17.6,30.01,North,0,0.0,0.0,36,0.00,,,0.00,WUHU216HW,2013-02-18 09:26:00,
2013-02-18 01:31:00,43.2,17.8,30.00,North,0,0.0,0.0,36,0.00,,,0.00,WUHU216HW,2013-02-18 09:31:00,
2013-02-18 01:36:00,42.8,16.8,30.00,North,0,0.0,0.0,35,0.00,,,0.00,WUHU216HW,2013-02-18 09:36:00,
2013-02-18 01:41:00,43.4,17.3,30.00,North,0,0.0,0.0,35,0.00,,,0.00,WUHU216HW,2013-02-18 09:41:00,
2013-02-18 01:46:00,43.9,19.1,30.00,North,0,0.0,0.0,37,0.00,,,0.00,WUHU216HW,2013-02-18 09:46:00,
2013-02-18 01:51:00,43.5,18.1,30.00,North,0,0.0,0.0,36,0.00,,,0.00,WUHU216HW,2013-02-18 09:51:00,
2013-02-18 01:56:00,43.5,18.1,30.00,North,0,0.0,0.0,36,0.00,,,0.00,WUHU216HW,2013-02-18 09:56:00,
2013-02-18 02:01:00,43.7,18.2,30.00,North,0,0.0,0.0,36,0.00,,,0.00,WUHU216HW,2013-02-18 10:01:00,
2013-02-18 02:06:00,43.0,17.0,30.00,North,0,0.0,0.0,35,0.00,,,0.00,WUHU216HW,2013-02-18 10:06:00,
2013-02-18 02:12:00,42.8,17.4,30.00,North,0,0.0,0.0,36,0.00,,,0.00,WUHU216HW,2013-02-18 10:12:00,
2013-02-18 02:17:00,42.3,16.3,30.00,North,0,0.0,0.0,35,0.00,,,0.00,WUHU216HW,2013-02-18 10:17:00,
2013-02-18 02:22:00,42.3,16.3,29.99,North,0,0.0,0.0,35,0.00,,,0.00,WUHU216HW,2013-02-18 10:22:00,
2013-02-18 02:27:00,42.6,16.6,29.99,North,0,0.0,0.0,35,0.00,,,0.00,WUHU216HW,2013-02-18 10:27:00,
2013-02-18 02:33:00,43.2,17.8,29.99,North,0,0.0,0.0,36,0.00,,,0.00,WUHU216HW,2013-02-18 10:33:00,
2013-02-18 02:38:00,43.0,17.6,29.99,North,0,0.0,0.0,36,0.00,,,0.00,WUHU216HW,2013-02-18 10:38:00,
2013-02-18 02:44:00,42.6,17.3,29.99,North,0,0.0,0.0,36,0.00,,,0.00,WUHU216HW,2013-02-18 10:44:00,
2013-02-18 02:49:00,42.3,17.0,29.99,North,0,0.0,0.0,36,0.00,,,0.00,WUHU216HW,2013-02-18 10:49:00,
2013-02-18 02:54:00,41.9,16.0,29.99,North,0,0.0,0.0,35,0.00,,,0.00,WUHU216HW,2013-02-18 10:54:00,
2013-02-18 02:59:00,41.6,15.7,29.98,North,0,0.0,0.0,35,0.00,,,0.00,WUHU216HW,2013-02-18 10:59:00,
2013-02-18 03:05:00,41.6,15.7,29.98,North,0,0.0,0.0,35,0.00,,,0.00,WUHU216HW,2013-02-18 11:05:00,
2013-02-18 03:10:00,41.4,15.6,29.98,North,0,0.0,0.0,35,0.00,,,0.00,WUHU216HW,2013-02-18 11:10:00,
2013-02-18 03:15:00,41.0,14.5,29.98,North,0,0.0,0.0,34,0.00,,,0.00,WUHU216HW,2013-02-18 11:15:00,
2013-02-18 03:20:00,40.7,13.6,29.98,North,0,0.0,0.0,33,0.00,,,0.00,WUHU216HW,2013-02-18 11:20:00,
2013-02-18 03:25:00,40.8,14.4,29.97,North,0,0.0,0.0,34,0.00,,,0.00,WUHU216HW,2013-02-18 11:25:00,
2013-02-18 03:30:00,40.8,15.0,29.97,North,0,0.0,0.0,35,0.00,,,0.00,WUHU216HW,2013-02-18 11:30:00,
2013-02-18 03:35:00,41.0,13.9,29.97,North,0,0.0,0.0,33,0.00,,,0.00,WUHU216HW,2013-02-18 11:35:00,
2013-02-18 03:40:00,41.3,15.4,29.97,North,0,0.0,0.0,35,0.00,,,0.00,WUHU216HW,2013-02-18 11:40:00,
2013-02-18 03:46:00,41.3,15.4,29.97,North,0,0.0,0.0,35,0.00,,,0.00,WUHU216HW,2013-02-18 11:46:00,
2013-02-18 03:51:00,41.1,15.2,29.97,North,0,0.0,0.0,35,0.00,,,0.00,WUHU216HW,2013-02-18 11:51:00,
2013-02-18 03:56:00,40.9,14.4,29.97,North,0,0.0,0.0,34,0.00,,,0.00,WUHU216HW,2013-02-18 11:56:00,
2013-02-18 04:01:00,40.9,14.4,29.97,North,0,0.0,0.0,34,0.00,,,0.00,WUHU216HW,2013-02-18 12:01:00,
2013-02-18 04:06:00,41.1,15.3,29.97,North,0,0.0,0.0,35,0.00,,,0.00,WUHU216HW,2013-02-18 12:06:00,
2013-02-18 04:11:00,40.9,15.1,29.97,North,0,0.0,0.0,35,0.00,,,0.00,WUHU216HW,2013-02-18 12:11:00,
2013-02-18 04:16:00,40.8,15.7,29.97,North,0,0.0,0.0,36,0.00,,,0.00,WUHU216HW,2013-02-18 12:16:00,
2013-02-18 04:21:00,40.6,15.5,29.97,North,0,0.0,0.0,36,0.00,,,0.00,WUHU216HW,2013-02-18 12:21:00,
2013-02-18 04:26:00,40.6,15.5,29.97,North,0,0.0,0.0,36,0.00,,,0.00,WUHU216HW,2013-02-18 12:26:00,
2013-02-18 04:31:00,40.6,15.5,29.97,North,0,0.0,0.0,36,0.00,,,0.00,WUHU216HW,2013-02-18 12:31:00,
2013-02-18 04:36:00,40.3,15.2,29.97,North,0,0.0,0.0,36,0.00,,,0.00,WUHU216HW,2013-02-18 12:36:00,
2013-02-18 04:41:00,40.3,15.2,29.97,North,0,0.0,0.0,36,0.00,,,0.00,WUHU216HW,2013-02-18 12:41:00,
2013-02-18 04:46:00,40.5,15.4,29.97,North,0,0.0,0.0,36,0.00,,,0.00,WUHU216HW,2013-02-18 12:46:00,
2013-02-18 04:52:00,40.7,15.6,29.97,North,0,0.0,0.0,36,0.00,,,0.00,WUHU216HW,2013-02-18 12:52:00,
2013-02-18 04:57:00,40.7,15.6,29.97,North,0,0.0,0.0,36,0.00,,,0.00,WUHU216HW,2013-02-18 12:57:00,
2013-02-18 05:02:00,40.5,16.0,29.97,North,0,0.0,0.0,37,0.00,,,0.00,WUHU216HW,2013-02-18 13:02:00,
2013-02-18 05:07:00,40.3,15.9,29.98,North,0,0.0,0.0,37,0.00,,,0.00,WUHU216HW,2013-02-18 13:07:00,
2013-02-18 05:12:00,40.1,15.7,29.98,North,0,0.0,0.0,37,0.00,,,0.00,WUHU216HW,2013-02-18 13:12:00,
2013-02-18 05:17:00,40.2,15.7,29.97,North,0,0.0,0.0,37,0.00,,,0.00,WUHU216HW,2013-02-18 13:17:00,
2013-02-18 05:22:00,39.9,14.2,29.97,North,0,0.0,0.0,35,0.00,,,0.00,WUHU216HW,2013-02-18 13:22:00,
2013-02-18 05:29:00,39.5,12.5,29.98,North,0,0.0,0.0,33,0.00,,,0.00,WUHU216HW,2013-02-18 13:29:00,
2013-02-18 05:35:00,39.3,12.3,29.98,North,0,0.0,0.0,33,0.00,,,0.00,WUHU216HW,2013-02-18 13:35:00,
2013-02-18 05:40:00,39.3,10.2,29.98,North,0,0.0,0.0,30,0.00,,,0.00,WUHU216HW,2013-02-18 13:40:00,
2013-02-18 05:45:00,39.3,12.4,29.98,North,0,0.0,0.0,33,0.00,,,0.00,WUHU216HW,2013-02-18 13:45:00,
2013-02-18 05:50:00,39.2,10.9,29.97,North,0,0.0,0.0,31,0.00,,,0.00,WUHU216HW,2013-02-18 13:50:00,
2013-02-18 05:55:00,39.1,9.2,29.98,North,0,0.0,0.0,29,0.00,,,0.00,WUHU216HW,2013-02-18 13:55:00,
2013-02-18 06:00:00,39.1,9.3,29.98,North,0,0.0,0.0,29,0.00,,,0.00,WUHU216HW,2013-02-18 14:00:00,
2013-02-18 06:05:00,38.9,9.1,29.98,North,0,0.0,0.0,29,0.00,,,0.00,WUHU216HW,2013-02-18 14:05:00,
2013-02-18 06:10:00,38.7,9.7,29.98,North,0,0.0,0.0,30,0.00,,,0.00,WUHU216HW,2013-02-18 14:10:00,
2013-02-18 06:15:00,38.7,9.0,29.97,North,0,0.0,0.0,29,0.00,,,0.00,WUHU216HW,2013-02-18 14:15:00,
2013-02-18 06:20:00,38.9,9.1,29.98,North,0,0.0,0.0,29,0.00,,,0.00,WUHU216HW,2013-02-18 14:20:00,
2013-02-18 06:25:00,38.8,7.4,29.97,North,0,0.0,0.0,27,0.00,,,0.00,WUHU216HW,2013-02-18 14:25:00,
2013-02-18 06:31:00,38.8,4.0,29.98,North,0,0.0,0.0,23,0.00,,,0.00,WUHU216HW,2013-02-18 14:31:00,
2013-02-18 06:36:00,39.0,4.2,29.98,North,0,0.0,0.0,23,0.00,,,0.00,WUHU216HW,2013-02-18 14:36:00,
2013-02-18 06:41:00,39.0,4.2,29.98,North,0,0.0,0.0,23,0.00,,,0.00,WUHU216HW,2013-02-18 14:41:00,
2013-02-18 06:46:00,39.0,5.1,29.98,North,0,0.0,0.0,24,0.00,,,0.00,WUHU216HW,2013-02-18 14:46:00,
2013-02-18 06:53:00,39.1,5.2,29.98,North,0,0.0,0.0,24,0.00,,,0.00,WUHU216HW,2013-02-18 14:53:00,
2013-02-18 06:58:00,38.9,2.2,29.98,North,0,0.0,0.0,21,0.00,,,0.00,WUHU216HW,2013-02-18 14:58:00,
2013-02-18 07:03:00,38.9,2.2,29.98,North,0,0.0,0.0,21,0.00,,,0.00,WUHU216HW,2013-02-18 15:03:00,
2013-02-18 07:08:00,38.9,2.2,29.98,North,0,0.0,0.0,21,0.00,,,0.00,WUHU216HW,2013-02-18 15:08:00,
2013-02-18 07:13:00,38.9,2.2,29.98,North,0,0.0,0.0,21,0.00,,,0.00,WUHU216HW,2013-02-18 15:13:00,
2013-02-18 07:19:00,39.1,2.4,29.98,North,0,0.0,0.0,21,0.00,,,0.00,WUHU216HW,2013-02-18 15:19:00,
2013-02-18 07:24:00,39.2,2.4,29.98,North,0,0.0,0.0,21,0.00,,,0.00,WUHU216HW,2013-02-18 15:24:00,
2013-02-18 07:29:00,39.2,2.4,29.98,North,0,0.0,0.0,21,0.00,,,0.00,WUHU216HW,2013-02-18 15:29:00,
2013-02-18 07:34:00,39.0,2.3,29.98,North,0,0.0,0.0,21,0.00,,,0.00,WUHU216HW,2013-02-18 15:34:00,
2013-02-18 07:39:00,39.0,2.3,29.98,North,0,0.0,0.0,21,0.00,,,0.00,WUHU216HW,2013-02-18 15:39:00,
2013-02-18 07:44:00,39.0,2.3,29.98,North,0,0.0,0.0,21,0.00,,,0.00,WUHU216HW,2013-02-18 15:44:00,
2013-02-18 07:49:00,39.1,2.3,29.99,North,0,0.0,0.0,21,0.00,,,0.00,WUHU216HW,2013-02-18 15:49:00,
2013-02-18 07:55:00,39.1,2.3,29.99,North,0,0.0,0.0,21,0.00,,,0.00,WUHU216HW,2013-02-18 15:55:00,
2013-02-18 08:00:00,39.1,2.4,29.99,North,0,0.0,0.0,21,0.00,,,0.00,WUHU216HW,2013-02-18 16:00:00,
2013-02-18 08:05:00,39.1,2.4,29.99,North,0,0.0,0.0,21,0.00,,,0.00,WUHU216HW,2013-02-18 16:05:00,
2013-02-18 08:10:00,39.1,2.4,29.99,North,0,0.0,0.0,21,0.00,,,0.00,WUHU216HW,2013-02-18 16:10:00,
2013-02-18 08:15:00,39.2,3.4,29.99,North,0,0.0,0.0,22,0.00,,,0.00,WUHU216HW,2013-02-18 16:15:00,
2013-02-18 08:20:00,39.4,3.6,29.99,North,0,0.0,0.0,22,0.00,,,0.00,WUHU216HW,2013-02-18 16:20:00,
2013-02-18 08:25:00,39.8,2.9,29.99,North,0,0.0,0.0,21,0.00,,,0.00,WUHU216HW,2013-02-18 16:25:00,
2013-02-18 08:30:00,40.1,2.2,29.99,North,0,0.0,0.0,20,0.00,,,0.00,WUHU216HW,2013-02-18 16:30:00,
2013-02-18 08:35:00,40.6,1.4,29.99,North,0,0.0,0.0,19,0.00,,,0.00,WUHU216HW,2013-02-18 16:35:00,
2013-02-18 08:40:00,41.1,0.7,29.98,North,0,0.0,0.0,18,0.00,,,0.00,WUHU216HW,2013-02-18 16:40:00,
2013-02-18 08:45:00,41.5,1.1,29.99,North,0,0.0,0.0,18,0.00,,,0.00,WUHU216HW,2013-02-18 16:45:00,
2013-02-18 08:50:00,41.7,0.0,29.99,North,0,0.0,0.0,17,0.00,,,0.00,WUHU216HW,2013-02-18 16:50:00,
2013-02-18 08:56:00,42.0,0.3,29.99,North,0,0.0,0.0,17,0.00,,,0.00,WUHU216HW,2013-02-18 16:56:00,
2013-02-18 09:01:00,42.1,0.3,29.99,North,0,0.0,0.0,17,0.00,,,0.00,WUHU216HW,2013-02-18 17:01:00,
2013-02-18 09:06:00,42.3,1.7,29.99,North,0,0.0,0.0,18,0.00,,,0.00,WUHU216HW,2013-02-18 17:06:00,
2013-02-18 09:11:00,42.1,1.6,29.99,North,0,0.0,0.0,18,0.00,,,0.00,WUHU216HW,2013-02-18 17:11:00,
2013-02-18 09:16:00,41.8,3.6,29.99,North,0,0.0,0.0,20,0.00,,,0.00,WUHU216HW,2013-02-18 17:16:00,
2013-02-18 09:21:00,41.6,3.4,30.00,North,0,0.0,0.0,20,0.00,,,0.00,WUHU216HW,2013-02-18 17:21:00,
2013-02-18 09:26:00,41.7,4.5,30.00,North,0,0.0,0.0,21,0.00,,,0.00,WUHU216HW,2013-02-18 17:26:00,
2013-02-18 09:31:00,41.9,4.7,30.00,North,0,0.0,0.0,21,0.00,,,0.00,WUHU216HW,2013-02-18 17:31:00,
2013-02-18 09:36:00,41.9,4.7,30.00,North,0,0.0,0.0,21,0.00,,,0.00,WUHU216HW,2013-02-18 17:36:00,
2013-02-18 09:41:00,42.0,4.8,30.00,North,0,0.0,0.0,21,0.00,,,0.00,WUHU216HW,2013-02-18 17:41:00,
2013-02-18 09:46:00,42.0,5.7,30.00,North,0,0.0,0.0,22,0.00,,,0.00,WUHU216HW,2013-02-18 17:46:00,
2013-02-18 09:51:00,41.8,5.6,30.00,North,0,0.0,0.0,22,0.00,,,0.00,WUHU216HW,2013-02-18 17:51:00,
2013-02-18 09:56:00,41.6,5.4,30.00,North,0,0.0,0.0,22,0.00,,,0.00,WUHU216HW,2013-02-18 17:56:00,
2013-02-18 10:01:00,41.4,6.2,30.00,North,0,0.0,0.0,23,0.00,,,0.00,WUHU216HW,2013-02-18 18:01:00,
2013-02-18 10:06:00,41.4,6.3,30.00,North,0,0.0,0.0,23,0.00,,,0.00,WUHU216HW,2013-02-18 18:06:00,
2013-02-18 10:11:00,41.3,6.1,30.00,North,0,0.0,0.0,23,0.00,,,0.00,WUHU216HW,2013-02-18 18:11:00,
2013-02-18 10:17:00,41.2,7.0,30.00,North,0,0.0,0.0,24,0.00,,,0.00,WUHU216HW,2013-02-18 18:17:00,
2013-02-18 10:22:00,41.2,7.0,30.00,North,0,0.0,0.0,24,0.00,,,0.00,WUHU216HW,2013-02-18 18:22:00,
2013-02-18 10:27:00,41.3,6.2,30.00,North,0,0.0,0.0,23,0.00,,,0.00,WUHU216HW,2013-02-18 18:27:00,
2013-02-18 10:32:00,41.3,6.2,30.00,North,0,0.0,0.0,23,0.00,,,0.00,WUHU216HW,2013-02-18 18:32:00,
2013-02-18 10:38:00,41.3,6.1,30.00,North,0,0.0,0.0,23,0.00,,,0.00,WUHU216HW,2013-02-18 18:38:00,
2013-02-18 10:43:00,41.3,6.1,30.00,North,0,0.0,0.0,23,0.00,,,0.00,WUHU216HW,2013-02-18 18:43:00,
2013-02-18 10:48:00,41.3,6.1,30.00,North,0,0.0,0.0,23,0.00,,,0.00,WUHU216HW,2013-02-18 18:48:00,
2013-02-18 10:53:00,41.1,6.9,30.01,North,0,0.0,0.0,24,0.00,,,0.00,WUHU216HW,2013-02-18 18:53:00,
2013-02-18 10:58:00,41.3,7.1,30.00,North,0,0.0,0.0,24,0.00,,,0.00,WUHU216HW,2013-02-18 18:58:00,
2013-02-18 11:03:00,41.4,6.2,30.01,North,0,0.0,0.0,23,0.00,,,0.00,WUHU216HW,2013-02-18 19:03:00,
2013-02-18 11:08:00,41.4,7.1,30.00,North,0,0.0,0.0,24,0.00,,,0.00,WUHU216HW,2013-02-18 19:08:00,
2013-02-18 11:13:00,41.5,6.3,30.01,North,0,0.0,0.0,23,0.00,,,0.00,WUHU216HW,2013-02-18 19:13:00,
2013-02-18 11:19:00,42.1,6.8,30.01,North,0,0.0,0.0,23,0.00,,,0.00,WUHU216HW,2013-02-18 19:19:00,
2013-02-18 11:24:00,42.3,7.0,30.01,North,0,0.0,0.0,23,0.00,,,0.00,WUHU216HW,2013-02-18 19:24:00,
2013-02-18 11:29:00,42.4,6.2,30.01,North,0,0.0,0.0,22,0.00,,,0.00,WUHU216HW,2013-02-18 19:29:00,
2013-02-18 11:34:00,42.7,7.3,30.01,North,0,0.0,0.0,23,0.00,,,0.00,WUHU216HW,2013-02-18 19:34:00,
2013-02-18 11:39:00,42.7,8.2,30.00,North,0,0.0,0.0,24,0.00,,,0.00,WUHU216HW,2013-02-18 19:39:00,
2013-02-18 11:44:00,42.5,8.1,30.00,North,0,0.0,0.0,24,0.00,,,0.00,WUHU216HW,2013-02-18 19:44:00,
2013-02-18 11:49:00,42.2,7.8,30.00,North,0,0.0,0.0,24,0.00,,,0.00,WUHU216HW,2013-02-18 19:49:00,
2013-02-18 11:54:00,42.2,7.9,30.00,North,0,0.0,0.0,24,0.00,,,0.00,WUHU216HW,2013-02-18 19:54:00,
2013-02-18 11:59:00,42.2,7.9,30.00,North,0,0.0,0.0,24,0.00,,,0.00,WUHU216HW,2013-02-18 19:59:00,
2013-02-18 12:04:00,42.5,8.0,30.00,North,0,0.0,0.0,24,0.00,,,0.00,WUHU216HW,2013-02-18 20:04:00,
2013-02-18 12:09:00,42.6,8.1,29.99,North,0,0.0,0.0,24,0.00,,,0.00,WUHU216HW,2013-02-18 20:09:00,
2013-02-18 12:14:00,42.8,8.3,29.99,North,0,0.0,0.0,24,0.00,,,0.00,WUHU216HW,2013-02-18 20:14:00,
2013-02-18 12:19:00,43.0,8.5,29.98,North,0,0.0,0.0,24,0.00,,,0.00,WUHU216HW,2013-02-18 20:19:00,
2013-02-18 12:24:00,43.4,8.9,29.98,North,0,0.0,0.0,24,0.00,,,0.00,WUHU216HW,2013-02-18 20:24:00,
2013-02-18 12:30:00,43.7,10.0,29.98,North,0,0.0,0.0,25,0.00,,,0.00,WUHU216HW,2013-02-18 20:30:00,
2013-02-18 12:35:00,44.1,12.1,29.97,North,0,0.0,0.0,27,0.00,,,0.00,WUHU216HW,2013-02-18 20:35:00,
2013-02-18 12:40:00,44.6,12.5,29.97,North,0,0.0,0.0,27,0.00,,,0.00,WUHU216HW,2013-02-18 20:40:00,
2013-02-18 12:45:00,45.3,14.6,29.97,North,0,0.0,0.0,29,0.00,,,0.00,WUHU216HW,2013-02-18 20:45:00,
2013-02-18 12:50:00,45.6,14.9,29.97,North,0,0.0,0.0,29,0.00,,,0.00,WUHU216HW,2013-02-18 20:50:00,
2013-02-18 12:55:00,46.0,16.0,29.97,North,0,0.0,0.0,30,0.00,,,0.00,WUHU216HW,2013-02-18 20:55:00,
2013-02-18 13:00:00,46.0,16.8,29.96,North,0,0.0,0.0,31,0.00,,,0.00,WUHU216HW,2013-02-18 21:00:00,
2013-02-18 13:05:00,46.3,17.8,29.96,North,0,0.0,0.0,32,0.00,,,0.00,WUHU216HW,2013-02-18 21:05:00,
2013-02-18 13:10:00,46.5,18.0,29.96,North,0,0.0,0.0,32,0.00,,,0.00,WUHU216HW,2013-02-18 21:10:00,
2013-02-18 13:15:00,46.9,18.3,29.96,North,0,0.0,0.0,32,0.00,,,0.00,WUHU216HW,2013-02-18 21:15:00,
2013-02-18 13:20:00,46.9,18.4,29.96,North,0,0.0,0.0,32,0.00,,,0.00,WUHU216HW,2013-02-18 21:20:00,
2013-02-18 13:25:00,47.1,18.5,29.95,North,0,0.0,0.0,32,0.00,,,0.00,WUHU216HW,2013-02-18 21:25:00,
2013-02-18 13:30:00,47.4,19.5,29.96,North,0,0.0,0.0,33,0.00,,,0.00,WUHU216HW,2013-02-18 21:30:00,
2013-02-18 13:35:00,47.5,19.5,29.96,North,0,0.0,0.0,33,0.00,,,0.00,WUHU216HW,2013-02-18 21:35:00,
2013-02-18 13:40:00,47.9,19.9,29.95,North,0,0.0,0.0,33,0.00,,,0.00,WUHU216HW,2013-02-18 21:40:00,
2013-02-18 13:45:00,48.2,21.5,29.95,North,0,0.0,0.0,35,0.00,,,0.00,WUHU216HW,2013-02-18 21:45:00,
2013-02-18 13:50:00,48.6,21.2,29.95,North,0,0.0,0.0,34,0.00,,,0.00,WUHU216HW,2013-02-18 21:50:00,
2013-02-18 13:56:00,48.8,22.1,29.95,North,0,0.0,0.0,35,0.00,,,0.00,WUHU216HW,2013-02-18 21:56:00,
2013-02-18 14:01:00,48.4,21.7,29.95,North,0,0.0,0.0,35,0.00,,,0.00,WUHU216HW,2013-02-18 22:01:00,
2013-02-18 14:06:00,48.1,20.8,29.95,North,0,0.0,0.0,34,0.00,,,0.00,WUHU216HW,2013-02-18 22:06:00,
2013-02-18 14:11:00,48.1,21.5,29.95,North,0,0.0,0.0,35,0.00,,,0.00,WUHU216HW,2013-02-18 22:11:00,
2013-02-18 14:16:00,47.9,19.9,29.95,North,0,0.0,0.0,33,0.00,,,0.00,WUHU216HW,2013-02-18 22:16:00,
2013-02-18 14:21:00,48.2,20.9,29.95,North,0,0.0,0.0,34,0.00,,,0.00,WUHU216HW,2013-02-18 22:21:00,
2013-02-18 14:26:00,48.4,20.4,29.95,North,0,0.0,0.0,33,0.00,,,0.00,WUHU216HW,2013-02-18 22:26:00,
2013-02-18 14:31:00,48.2,21.6,29.94,North,0,0.0,0.0,35,0.00,,,0.00,WUHU216HW,2013-02-18 22:31:00,
2013-02-18 14:36:00,47.9,19.9,29.95,North,0,0.0,0.0,33,0.00,,,0.00,WUHU216HW,2013-02-18 22:36:00,
2013-02-18 14:41:00,48.1,20.1,29.95,North,0,0.0,0.0,33,0.00,,,0.00,WUHU216HW,2013-02-18 22:41:00,
2013-02-18 14:46:00,48.4,20.4,29.94,North,0,0.0,0.0,33,0.00,,,0.00,WUHU216HW,2013-02-18 22:46:00,
2013-02-18 14:51:00,48.4,21.8,29.94,North,0,0.0,0.0,35,0.00,,,0.00,WUHU216HW,2013-02-18 22:51:00,
2013-02-18 14:56:00,48.4,21.8,29.94,North,0,0.0,0.0,35,0.00,,,0.00,WUHU216HW,2013-02-18 22:56:00,
2013-02-18 15:01:00,48.8,22.8,29.94,North,0,0.0,0.0,36,0.00,,,0.00,WUHU216HW,2013-02-18 23:01:00,
2013-02-18 15:06:00,48.8,22.8,29.94,North,0,0.0,0.0,36,0.00,,,0.00,WUHU216HW,2013-02-18 23:06:00,
2013-02-18 15:11:00,48.6,21.9,29.93,North,0,0.0,0.0,35,0.00,,,0.00,WUHU216HW,2013-02-18 23:11:00,
2013-02-18 15:16:00,48.8,23.4,29.93,North,0,0.0,0.0,37,0.00,,,0.00,WUHU216HW,2013-02-18 23:16:00,
2013-02-18 15:21:00,49.3,24.5,29.94,North,0,0.0,0.0,38,0.00,,,0.00,WUHU216HW,2013-02-18 23:21:00,
2013-02-18 15:27:00,49.7,24.9,29.93,North,0,0.0,0.0,38,0.00,,,0.00,WUHU216HW,2013-02-18 23:27:00,
2013-02-18 15:32:00,49.7,24.9,29.94,North,0,0.0,0.0,38,0.00,,,0.00,WUHU216HW,2013-02-18 23:32:00,
2013-02-18 15:37:00,49.0,24.3,29.93,North,0,0.0,0.0,38,0.00,,,0.00,WUHU216HW,2013-02-18 23:37:00,
2013-02-18 15:42:00,48.8,23.4,29.93,North,0,0.0,0.0,37,0.00,,,0.00,WUHU216HW,2013-02-18 23:42:00,
2013-02-18 15:47:00,48.6,22.6,29.93,North,0,0.0,0.0,36,0.00,,,0.00,WUHU216HW,2013-02-18 23:47:00,
2013-02-18 15:52:00,48.4,23.1,29.93,North,0,0.0,0.0,37,0.00,,,0.00,WUHU216HW,2013-02-18 23:52:00,
2013-02-18 15:57:00,48.2,22.9,29.93,North,0,0.0,0.0,37,0.00,,,0.00,WUHU216HW,2013-02-18 23:57:00,
2013-02-18 16:02:00,48.0,22.8,29.93,North,0,0.0,0.0,37,0.00,,,0.00,WUHU216HW,2013-02-19 00:02:00,
2013-02-18 16:07:00,48.0,22.8,29.93,North,0,0.0,0.0,37,0.00,,,0.00,WUHU216HW,2013-02-19 00:07:00,
2013-02-18 16:13:00,47.8,22.6,29.93,North,0,0.0,0.0,37,0.00,,,0.00,WUHU216HW,2013-02-19 00:13:00,
2013-02-18 16:18:00,47.8,22.6,29.92,North,0,0.0,0.0,37,0.00,,,0.00,WUHU216HW,2013-02-19 00:18:00,
2013-02-18 16:23:00,47.8,21.9,29.92,North,0,0.0,0.0,36,0.00,,,0.00,WUHU216HW,2013-02-19 00:23:00,
2013-02-18 16:28:00,47.8,21.9,29.93,North,0,0.0,0.0,36,0.00,,,0.00,WUHU216HW,2013-02-19 00:28:00,
2013-02-18 16:33:00,47.6,21.0,29.93,North,0,0.0,0.0,35,0.00,,,0.00,WUHU216HW,2013-02-19 00:33:00,
2013-02-18 16:38:00,47.4,20.9,29.92,North,0,0.0,0.0,35,0.00,,,0.00,WUHU216HW,2013-02-19 00:38:00,
2013-02-18 16:43:00,47.4,19.5,29.92,North,0,0.0,0.0,33,0.00,,,0.00,WUHU216HW,2013-02-19 00:43:00,
2013-02-18 16:48:00,47.2,20.0,29.92,North,0,0.0,0.0,34,0.00,,,0.00,WUHU216HW,2013-02-19 00:48:00,
2013-02-18 16:53:00,47.1,19.9,29.92,North,0,0.0,0.0,34,0.00,,,0.00,WUHU216HW,2013-02-19 00:53:00,
2013-02-18 16:58:00,46.8,19.7,29.92,North,0,0.0,0.0,34,0.00,,,0.00,WUHU216HW,2013-02-19 00:58:00,
2013-02-18 17:04:00,46.8,19.0,29.92,North,0,0.0,0.0,33,0.00,,,0.00,WUHU216HW,2013-02-19 01:04:00,
2013-02-18 17:09:00,46.6,19.5,29.92,North,0,0.0,0.0,34,0.00,,,0.00,WUHU216HW,2013-02-19 01:09:00,
2013-02-18 17:14:00,46.2,18.4,29.92,North,0,0.0,0.0,33,0.00,,,0.00,WUHU216HW,2013-02-19 01:14:00,
2013-02-18 17:19:00,46.1,18.3,29.92,North,0,0.0,0.0,33,0.00,,,0.00,WUHU216HW,2013-02-19 01:19:00,
2013-02-18 17:25:00,45.9,18.1,29.92,North,0,0.0,0.0,33,0.00,,,0.00,WUHU216HW,2013-02-19 01:25:00,
2013-02-18 17:30:00,45.5,17.8,29.92,North,0,0.0,0.0,33,0.00,,,0.00,WUHU216HW,2013-02-19 01:30:00,
2013-02-18 17:35:00,45.4,17.0,29.92,North,0,0.0,0.0,32,0.00,,,0.00,WUHU216HW,2013-02-19 01:35:00,
2013-02-18 17:40:00,45.2,16.9,29.92,North,0,0.0,0.0,32,0.00,,,0.00,WUHU216HW,2013-02-19 01:40:00,
2013-02-18 17:45:00,45.2,16.8,29.92,North,0,0.0,0.0,32,0.00,,,0.00,WUHU216HW,2013-02-19 01:45:00,
2013-02-18 17:50:00,45.1,16.7,29.92,North,0,0.0,0.0,32,0.00,,,0.00,WUHU216HW,2013-02-19 01:50:00,
2013-02-18 17:56:00,45.1,16.0,29.92,North,0,0.0,0.0,31,0.00,,,0.00,WUHU216HW,2013-02-19 01:56:00,
2013-02-18 18:01:00,45.1,16.0,29.92,North,0,0.0,0.0,31,0.00,,,0.00,WUHU216HW,2013-02-19 02:01:00,
2013-02-18 18:06:00,45.0,16.0,29.92,North,0,0.0,0.0,31,0.00,,,0.00,WUHU216HW,2013-02-19 02:06:00,
2013-02-18 18:11:00,44.8,15.8,29.92,North,0,0.0,0.0,31,0.00,,,0.00,WUHU216HW,2013-02-19 02:11:00,
2013-02-18 18:16:00,44.8,15.8,29.92,North,0,0.0,0.0,31,0.00,,,0.00,WUHU216HW,2013-02-19 02:16:00,
2013-02-18 18:21:00,44.8,15.7,29.92,North,0,0.0,0.0,31,0.00,,,0.00,WUHU216HW,2013-02-19 02:21:00,
2013-02-18 18:26:00,44.8,15.7,29.92,North,0,0.0,0.0,31,0.00,,,0.00,WUHU216HW,2013-02-19 02:26:00,
2013-02-18 18:32:00,44.6,14.8,29.92,North,0,0.0,0.0,30,0.00,,,0.00,WUHU216HW,2013-02-19 02:32:00,
2013-02-18 18:37:00,44.3,14.6,29.92,North,0,0.0,0.0,30,0.00,,,0.00,WUHU216HW,2013-02-19 02:37:00,
2013-02-18 18:42:00,44.3,14.6,29.92,North,0,0.0,0.0,30,0.00,,,0.00,WUHU216HW,2013-02-19 02:42:00,
2013-02-18 18:47:00,44.3,13.8,29.92,North,0,0.0,0.0,29,0.00,,,0.00,WUHU216HW,2013-02-19 02:47:00,
2013-02-18 18:52:00,44.1,13.6,29.92,North,0,0.0,0.0,29,0.00,,,0.00,WUHU216HW,2013-02-19 02:52:00,
2013-02-18 18:57:00,44.1,13.6,29.92,North,0,0.0,0.0,29,0.00,,,0.00,WUHU216HW,2013-02-19 02:57:00,
2013-02-18 19:02:00,44.0,12.8,29.92,North,0,0.0,0.0,28,0.00,,,0.00,WUHU216HW,2013-02-19 03:02:00,
2013-02-18 19:07:00,44.0,13.6,29.92,North,0,0.0,0.0,29,0.00,,,0.00,WUHU216HW,2013-02-19 03:07:00,
2013-02-18 19:12:00,44.0,13.5,29.92,North,0,0.0,0.0,29,0.00,,,0.00,WUHU216HW,2013-02-19 03:12:00,
2013-02-18 19:17:00,44.0,13.5,29.92,North,0,0.0,0.0,29,0.00,,,0.00,WUHU216HW,2013-02-19 03:17:00,
2013-02-18 19:22:00,44.0,13.5,29.92,North,0,0.0,0.0,29,0.00,,,0.00,WUHU216HW,2013-02-19 03:22:00,
2013-02-18 19:29:00,43.9,12.7,29.93,North,0,0.0,0.0,28,0.00,,,0.00,WUHU216HW,2013-02-19 03:29:00,
2013-02-18 19:34:00,43.8,12.6,29.93,North,0,0.0,0.0,28,0.00,,,0.00,WUHU216HW,2013-02-19 03:34:00,
2013-02-18 19:39:00,43.8,13.4,29.93,North,0,0.0,0.0,29,0.00,,,0.00,WUHU216HW,2013-02-19 03:39:00,
2013-02-18 19:44:00,43.6,13.9,29.93,North,0,0.0,0.0,30,0.00,,,0.00,WUHU216HW,2013-02-19 03:44:00,
2013-02-18 19:49:00,43.3,15.2,29.92,North,0,0.0,0.0,32,0.00,,,0.00,WUHU216HW,2013-02-19 03:49:00,
2013-02-18 19:54:00,43.1,15.7,29.93,North,0,0.0,0.0,33,0.00,,,0.00,WUHU216HW,2013-02-19 03:54:00,
2013-02-18 19:59:00,42.9,15.5,29.93,North,0,0.0,0.0,33,0.00,,,0.00,WUHU216HW,2013-02-19 03:59:00,
2013-02-18 20:04:00,42.5,15.2,29.93,North,0,0.0,0.0,33,0.00,,,0.00,WUHU216HW,2013-02-19 04:04:00,
2013-02-18 20:09:00,42.3,15.0,29.93,North,0,0.0,0.0,33,0.00,,,0.00,WUHU216HW,2013-02-19 04:09:00,
2013-02-18 20:14:00,42.0,14.8,29.93,North,0,0.0,0.0,33,0.00,,,0.00,WUHU216HW,2013-02-19 04:14:00,
2013-02-18 20:20:00,41.8,14.5,29.93,North,0,0.0,0.0,33,0.00,,,0.00,WUHU216HW,2013-02-19 04:20:00,
2013-02-18 20:25:00,41.7,14.5,29.93,North,0,0.0,0.0,33,0.00,,,0.00,WUHU216HW,2013-02-19 04:25:00,
2013-02-18 20:31:00,41.6,14.4,29.93,North,0,0.0,0.0,33,0.00,,,0.00,WUHU216HW,2013-02-19 04:31:00,
2013-02-18 20:36:00,41.4,14.1,29.93,North,0,0.0,0.0,33,0.00,,,0.00,WUHU216HW,2013-02-19 04:36:00,
2013-02-18 20:41:00,41.1,13.9,29.93,North,0,0.0,0.0,33,0.00,,,0.00,WUHU216HW,2013-02-19 04:41:00,
2013-02-18 20:46:00,40.9,13.0,29.93,North,0,0.0,0.0,32,0.00,,,0.00,WUHU216HW,2013-02-19 04:46:00,
2013-02-18 20:51:00,40.6,12.8,29.93,North,0,0.0,0.0,32,0.00,,,0.00,WUHU216HW,2013-02-19 04:51:00,
2013-02-18 20:56:00,40.5,12.7,29.93,North,0,0.0,0.0,32,0.00,,,0.00,WUHU216HW,2013-02-19 04:56:00,
2013-02-18 21:00:00,40.5,12.7,29.93,North,0,0.0,0.0,32,0.00,,,0.00,WUHU216HW,2013-02-19 05:00:00,
2013-02-18 21:02:00,40.5,12.7,29.93,North,0,0.0,0.0,32,0.00,,,0.00,WUHU216HW,2013-02-19 05:02:00,
2013-02-18 21:07:00,40.3,12.5,29.93,North,0,0.0,0.0,32,0.00,,,0.00,WUHU216HW,2013-02-19 05:07:00,
2013-02-18 21:12:00,40.1,12.3,29.94,North,0,0.0,0.0,32,0.00,,,0.00,WUHU216HW,2013-02-19 05:12:00,
2013-02-18 21:17:00,40.0,12.3,29.94,North,0,0.0,0.0,32,0.00,,,0.00,WUHU216HW,2013-02-19 05:17:00,
2013-02-18 21:22:00,40.0,11.6,29.94,North,0,0.0,0.0,31,0.00,,,0.00,WUHU216HW,2013-02-19 05:22:00,
2013-02-18 21:27:00,39.8,11.4,29.94,North,0,0.0,0.0,31,0.00,,,0.00,WUHU216HW,2013-02-19 05:27:00,
2013-02-18 21:32:00,39.8,11.4,29.94,North,0,0.0,0.0,31,0.00,,,0.00,WUHU216HW,2013-02-19 05:32:00,
2013-02-18 21:37:00,39.8,12.1,29.95,North,0,0.0,0.0,32,0.00,,,0.00,WUHU216HW,2013-02-19 05:37:00,
2013-02-18 21:42:00,39.8,11.3,29.95,North,0,0.0,0.0,31,0.00,,,0.00,WUHU216HW,2013-02-19 05:42:00,
2013-02-18 21:47:00,39.7,11.3,29.95,North,0,0.0,0.0,31,0.00,,,0.00,WUHU216HW,2013-02-19 05:47:00,
2013-02-18 21:52:00,39.7,11.3,29.94,North,0,0.0,0.0,31,0.00,,,0.00,WUHU216HW,2013-02-19 05:52:00,
2013-02-18 21:57:00,39.7,11.3,29.94,North,0,0.0,0.0,31,0.00,,,0.00,WUHU216HW,2013-02-19 05:57:00,
2013-02-18 22:03:00,39.5,11.1,29.94,North,0,0.0,0.0,31,0.00,,,0.00,WUHU216HW,2013-02-19 06:03:00,
2013-02-18 22:08:00,39.4,11.0,29.94,North,0,0.0,0.0,31,0.00,,,0.00,WUHU216HW,2013-02-19 06:08:00,
2013-02-18 22:13:00,39.3,11.0,29.94,North,0,0.0,0.0,31,0.00,,,0.00,WUHU216HW,2013-02-19 06:13:00,
2013-02-18 22:18:00,39.1,10.8,29.94,North,0,0.0,0.0,31,0.00,,,0.00,WUHU216HW,2013-02-19 06:18:00,
2013-02-18 22:23:00,39.1,11.5,29.94,North,0,0.0,0.0,32,0.00,,,0.00,WUHU216HW,2013-02-19 06:23:00,
2013-02-18 22:28:00,38.9,11.3,29.94,North,0,0.0,0.0,32,0.00,,,0.00,WUHU216HW,2013-02-19 06:28:00,
2013-02-18 22:33:00,38.9,11.3,29.94,North,0,0.0,0.0,32,0.00,,,0.00,WUHU216HW,2013-02-19 06:33:00,
2013-02-18 22:38:00,38.9,11.3,29.94,North,0,0.0,0.0,32,0.00,,,0.00,WUHU216HW,2013-02-19 06:38:00,
2013-02-18 22:43:00,38.6,11.1,29.94,North,0,0.0,0.0,32,0.00,,,0.00,WUHU216HW,2013-02-19 06:43:00,
2013-02-18 22:48:00,38.8,11.2,29.94,North,0,0.0,0.0,32,0.00,,,0.00,WUHU216HW,2013-02-19 06:48:00,
2013-02-18 22:53:00,38.6,11.7,29.94,North,0,0.0,0.0,33,0.00,,,0.00,WUHU216HW,2013-02-19 06:53:00,
2013-02-18 22:58:00,38.6,11.7,29.94,North,0,0.0,0.0,33,0.00,,,0.00,WUHU216HW,2013-02-19 06:58:00,
2013-02-18 23:04:00,38.6,11.7,29.93,North,0,0.0,0.0,33,0.00,,,0.00,WUHU216HW,2013-02-19 07:04:00,
2013-02-18 23:08:00,38.6,11.7,29.94,North,0,0.0,0.0,33,0.00,,,0.00,WUHU216HW,2013-02-19 07:08:00,
2013-02-18 23:14:00,38.4,11.5,29.94,North,0,0.0,0.0,33,0.00,,,0.00,WUHU216HW,2013-02-19 07:14:00,
2013-02-18 23:19:00,38.3,11.5,29.94,North,0,0.0,0.0,33,0.00,,,0.00,WUHU216HW,2013-02-19 07:19:00,
2013-02-18 23:25:00,38.3,11.5,29.94,North,0,0.0,0.0,33,0.00,,,0.00,WUHU216HW,2013-02-19 07:25:00,
2013-02-18 23:30:00,38.3,11.5,29.93,North,0,0.0,0.0,33,0.00,,,0.00,WUHU216HW,2013-02-19 07:30:00,
2013-02-18 23:35:00,38.3,11.5,29.93,North,0,0.0,0.0,33,0.00,,,0.00,WUHU216HW,2013-02-19 07:35:00,
2013-02-18 23:40:00,38.3,11.4,29.93,North,0,0.0,0.0,33,0.00,,,0.00,WUHU216HW,2013-02-19 07:40:00,
2013-02-18 23:45:00,38.2,12.0,29.93,North,0,0.0,0.0,34,0.00,,,0.00,WUHU216HW,2013-02-19 07:45:00,
2013-02-18 23:50:00,38.0,11.2,29.93,North,0,0.0,0.0,33,0.00,,,0.00,WUHU216HW,2013-02-19 07:50:00,
2013-02-18 23:55:00,37.8,11.0,29.93,North,0,0.0,0.0,33,0.00,,,0.00,WUHU216HW,2013-02-19 07:55:00,